Time;durP1;ratioP1;P1;durP2;ratioP2;P2;SDS_P1;SDS_P2;PMS_P1;PMS_P2;Temp;Humidity;BMP_temperature;BMP_pressure;BME280_temperature;BME280_humidity;BME280_pressure;Samples;Min_cycle;Max_cycle;Signal;HPM_P1;HPM_P2
2022/06/16 17:38:42;;;;;;;22.45;3.30;;;;;;;;;;4891349;29;20216;-80
2022/06/16 17:41:12;;;;;;;10.20;2.33;;;21.80;99.90;;;;;;4893036;29;20037;-82
2022/06/16 17:43:39;;;;;;;4.55;2.30;;;;;;;;;;4876717;29;20036;-81
2022/06/16 17:46:08;;;;;;;2.97;2.08;;;;;;;;;;4902359;29;20593;-82
2022/06/16 17:48:38;;;;;;;5.95;2.30;;;;;;;;;;4892535;29;20131;-81
2022/06/16 17:51:09;;;;;;;13.05;2.80;;;22.10;99.90;;;;;;4895942;29;20048;-83
2022/06/16 18:02:00;;;;;;;8.52;2.65;;;;;;;;;;4883044;29;20108;-81
2022/06/16 18:04:26;;;;;;;26.67;3.30;;;;;;;;;;4891360;29;20103;-77
2022/06/16 18:06:53;;;;;;;6.45;2.42;;;;;;;;;;4871826;29;20048;-79
2022/06/16 18:09:19;;;;;;;5.90;2.40;;;;;;;;;;4861391;29;20076;-78
2022/06/16 18:11:45;;;;;;;6.90;2.00;;;;;;;;;;4859852;29;20127;-81
2022/06/16 18:14:20;;;;;;;6.70;1.88;;;;;;;;;;4894630;29;20829;-77
2022/06/16 18:16:53;;;;;;;4.45;2.33;;;;;;;;;;4888634;29;20501;-80
2022/06/16 18:19:19;;;;;;;4.88;2.05;;;;;;;;;;4874812;29;20398;-76
2022/06/16 18:21:47;;;;;;;6.70;2.22;;;;;;;;;;4893532;29;20040;-77
2022/06/16 18:24:54;;;;;;;4.43;1.83;;;23.50;99.90;;;;;;4893486;29;20056;-80
2022/06/16 18:27:22;;;;;;;5.30;2.10;;;;;;;;;;4896407;29;20055;-77
2022/06/16 18:29:48;;;;;;;5.10;2.20;;;;;;;;;;4903670;29;20182;-77
2022/06/16 18:32:16;;;;;;;3.70;2.13;;;;;;;;;;4902254;29;20051;-75
2022/06/16 18:34:42;;;;;;;5.22;2.33;;;;;;;;;;4906045;29;20044;-80
2022/06/16 18:37:08;;;;;;;4.53;2.20;;;;;;;;;;4890793;29;20049;-81
2022/06/16 18:39:34;;;;;;;8.10;2.35;;;;;;;;;;4883079;29;20052;-80
2022/06/16 18:42:03;;;;;;;7.63;2.67;;;;;;;;;;4887389;29;20048;-80
2022/06/16 18:44:29;;;;;;;9.43;2.70;;;;;;;;;;4906101;29;20049;-76
2022/06/16 18:47:00;;;;;;;7.40;2.70;;;;;;;;;;4909117;29;20080;-81
2022/06/16 18:49:40;;;;;;;4.38;2.30;;;;;;;;;;4890158;29;20082;-76
2022/06/16 18:52:12;;;;;;;6.82;2.92;;;;;;;;;;4875510;29;20112;-78
2022/06/16 18:54:38;;;;;;;7.13;2.75;;;;;;;;;;4894985;29;20104;-83
2022/06/16 18:57:05;;;;;;;6.55;2.70;;;;;;;;;;4876386;29;20524;-83
2022/06/16 18:59:31;;;;;;;4.97;2.78;;;;;;;;;;4878527;29;20052;-82
2022/06/16 19:01:57;;;;;;;6.68;3.42;;;;;;;;;;4891811;29;20052;-82
2022/06/16 19:04:24;;;;;;;4.80;3.28;;;;;;;;;;4898190;29;20193;-84
2022/06/16 19:07:01;;;;;;;4.20;2.88;;;;;;;;;;4883315;29;20064;-81
2022/06/16 19:09:27;;;;;;;9.70;2.97;;;;;;;;;;4883182;29;20048;-83
2022/06/16 19:14:38;;;;;;;5.32;2.80;;;;;;;;;;4886815;29;20118;-78
2022/06/16 19:17:04;;;;;;;6.80;3.10;;;;;;;;;;4882270;29;20063;-82
2022/06/16 19:19:45;;;;;;;3.95;3.00;;;;;;;;;;4885086;29;20105;-81
2022/06/16 19:22:12;;;;;;;3.65;2.70;;;;;;;;;;4851207;29;20561;-83
2022/06/16 19:24:39;;;;;;;5.20;2.95;;;;;;;;;;4881052;29;20116;-81
2022/06/16 19:27:05;;;;;;;4.90;3.00;;;;;;;;;;4880703;29;20048;-83
2022/06/16 19:29:34;;;;;;;5.25;2.85;;;;;;;;;;4883551;29;20455;-77
2022/06/16 19:32:06;;;;;;;4.43;2.60;;;;;;;;;;4890451;29;20489;-85
2022/06/16 19:34:32;;;;;;;4.17;2.60;;;;;;;;;;4872382;29;20116;-84
2022/06/16 19:36:59;;;;;;;5.00;2.70;;;;;;;;;;4884849;29;20116;-79
2022/06/16 19:39:25;;;;;;;7.35;2.78;;;;;;;;;;4885696;29;20112;-81
2022/06/16 19:41:55;;;;;;;7.65;3.28;;;;;;;;;;4887097;29;20055;-81
2022/06/16 19:52:52;;;;;;;4.82;3.55;;;;;;;;;;4888328;29;20072;-82
2022/06/16 19:55:20;;;;;;;6.07;3.60;;;;;;;;;;4887797;29;20051;-80
2022/06/16 19:57:46;;;;;;;4.68;3.10;;;;;;;;;;4891920;29;20052;-78
2022/06/16 20:00:16;;;;;;;4.95;3.97;;;;;;;;;;4872208;29;20172;-80
2022/06/16 20:02:43;;;;;;;6.25;3.25;;;;;;;;;;4897733;29;20045;-80
2022/06/16 20:05:09;;;;;;;10.75;3.58;;;;;;;;;;4886142;29;20144;-82
2022/06/16 20:07:36;;;;;;;6.35;3.50;;;;;;;;;;4889423;29;20505;-79
2022/06/16 20:10:04;;;;;;;7.30;4.55;;;;;;;;;;4869218;29;20080;-82
2022/06/16 20:12:30;;;;;;;6.63;4.10;;;;;;;;;;4888048;29;20411;-80
2022/06/16 20:14:56;;;;;;;7.97;4.78;;;;;;;;;;4902630;29;20043;-80
2022/06/16 20:17:22;;;;;;;6.72;4.90;;;;;;;;;;4875234;29;20047;-76
2022/06/16 20:19:57;;;;;;;10.60;4.82;;;;;;;;;;4885244;29;20109;-79
2022/06/16 20:22:23;;;;;;;6.47;5.05;;;;;;;;;;4895135;29;20045;-76
2022/06/16 20:24:49;;;;;;;7.05;4.43;;;;;;;;;;4890699;29;20075;-75
2022/06/16 20:27:16;;;;;;;11.38;5.07;;;;;;;;;;4892707;29;20054;-80
2022/06/16 20:29:42;;;;;;;6.82;4.55;;;;;;;;;;4876443;29;20036;-79
2022/06/16 20:32:11;;;;;;;6.90;4.30;;;;;;;;;;4889469;29;20048;-78
2022/06/16 20:34:38;;;;;;;8.02;4.60;;;;;;;;;;4876972;29;20510;-78
2022/06/16 20:37:04;;;;;;;6.80;4.40;;;;;;;;;;4889027;29;20434;-81
2022/06/16 20:39:36;;;;;;;8.38;4.50;;;;;;;;;;4881791;29;20084;-78
2022/06/16 20:42:27;;;;;;;7.20;5.45;;;;;;;;;;4869529;29;20462;-82
2022/06/16 20:44:56;;;;;;;7.70;4.88;;;;;;;;;;4866189;29;20048;-78
2022/06/16 20:47:31;;;;;;;8.40;4.55;;;;;;;;;;4871753;29;20517;-81
2022/06/16 20:49:58;;;;;;;9.40;3.83;;;;;;;;;;4852356;29;20045;-81
2022/06/16 20:52:25;;;;;;;6.57;4.00;;;;;;;;;;4873443;29;20048;-76
2022/06/16 20:54:51;;;;;;;10.07;4.13;;;;;;;;;;4872438;29;20671;-81
2022/06/16 21:02:52;;;;;;;13.90;4.47;;;;;;;;;;4881163;29;20048;-81
2022/06/16 21:05:21;;;;;;;10.25;4.20;;;17.70;99.90;;;;;;4894517;29;20054;-80
2022/06/16 21:07:47;;;;;;;11.23;4.57;;;;;;;;;;4872853;29;20204;-80
2022/06/16 21:10:19;;;;;;;8.50;4.43;;;;;;;;;;4875747;29;20782;-81
2022/06/16 21:12:46;;;;;;;5.03;3.97;;;;;;;;;;4875551;29;20029;-81
2022/06/16 21:15:12;;;;;;;7.20;4.05;;;;;;;;;;4872594;29;20041;-78
2022/06/16 21:17:39;;;;;;;5.38;4.75;;;;;;;;;;4873014;29;20105;-78
2022/06/16 21:20:07;;;;;;;6.53;4.95;;;;;;;;;;4870075;29;20160;-81
2022/06/16 21:22:34;;;;;;;7.28;5.32;;;;;;;;;;4865833;29;20683;-80
2022/06/16 21:25:00;;;;;;;5.38;4.88;;;;;;;;;;4866380;29;20048;-80
2022/06/16 21:27:27;;;;;;;8.63;5.30;;;;;;;;;;4873225;29;20125;-81
2022/06/16 21:29:53;;;;;;;7.15;5.07;;;;;;;;;;4864394;29;20048;-80
2022/06/16 21:32:21;;;;;;;11.73;6.18;;;;;;;;;;4864918;29;20052;-78
2022/06/16 21:34:48;;;;;;;6.38;5.38;;;;;;;;;;4865782;29;20149;-78
2022/06/16 21:37:22;;;;;;;7.85;6.18;;;;;;;;;;4857626;29;20081;-80
2022/06/16 21:39:48;;;;;;;10.32;6.32;;;;;;;;;;4859894;29;20103;-80
2022/06/16 21:42:15;;;;;;;11.75;6.28;;;;;;;;;;4862315;29;20045;-81
2022/06/16 21:44:41;;;;;;;10.93;5.85;;;;;;;;;;4861038;29;20068;-78
2022/06/16 21:47:12;;;;;;;8.57;6.07;;;;;;;;;;4862241;29;20054;-81
2022/06/16 21:49:38;;;;;;;8.02;6.40;;;;;;;;;;4866873;29;20113;-80
2022/06/16 21:52:06;;;;;;;8.88;6.53;;;;;;;;;;4860791;29;20045;-81
2022/06/16 21:54:32;;;;;;;13.85;6.13;;;;;;;;;;4862460;29;20406;-82
2022/06/16 21:56:58;;;;;;;8.10;5.32;;;;;;;;;;4869743;29;20044;-75
2022/06/16 21:59:24;;;;;;;8.65;5.80;;;;;;;;;;4861682;29;20058;-76
2022/06/16 22:01:50;;;;;;;9.38;6.10;;;;;;;;;;4862978;29;20515;-78
2022/06/16 22:04:21;;;;;;;11.27;7.50;;;;;;;;;;4882363;29;20033;-76
2022/06/16 22:06:48;;;;;;;7.60;6.80;;;;;;;;;;4880991;29;20049;-77
2022/06/16 22:09:14;;;;;;;10.27;7.05;;;;;;;;;;4906044;29;20463;-76
2022/06/16 22:17:26;;;;;;;13.93;9.23;;;16.00;99.90;;;;;;4877127;29;20530;-75
2022/06/16 22:19:53;;;;;;;16.38;10.15;;;;;;;;;;4864451;29;20498;-76
2022/06/16 22:22:19;;;;;;;17.40;10.85;;;;;;;;;;4863079;29;20132;-75
2022/06/16 22:24:45;;;;;;;12.57;11.13;;;;;;;;;;4858496;29;20068;-76
2022/06/16 22:27:12;;;;;;;12.05;10.48;;;;;;;;;;4865556;29;20041;-77
2022/06/16 22:29:39;;;;;;;15.32;10.00;;;;;;;;;;4862160;29;20482;-81
2022/06/16 22:32:06;;;;;;;12.20;10.77;;;;;;;;;;4866470;29;20052;-80
2022/06/16 22:34:32;;;;;;;16.25;12.00;;;;;;;;;;4865535;29;20052;-82
2022/06/16 22:36:58;;;;;;;11.82;10.40;;;;;;;;;;4865564;29;20057;-81
2022/06/16 22:42:12;;;;;;;17.35;12.38;;;;;;;;;;4877679;29;20056;-80
2022/06/16 22:44:38;;;;;;;13.60;12.20;;;;;;;;;;4877843;29;20084;-78
2022/06/16 22:47:05;;;;;;;15.07;11.70;;;;;;;;;;4870767;29;20582;-81
2022/06/16 22:49:32;;;;;;;16.38;13.10;;;15.70;99.90;;;;;;4891246;29;21027;-81
2022/06/16 22:51:58;;;;;;;17.75;13.95;;;;;;;;;;4879499;29;20099;-80
2022/06/16 22:57:14;;;;;;;16.15;14.30;;;;;;;;;;4865500;29;20101;-80
2022/06/16 22:59:40;;;;;;;15.60;14.05;;;;;;;;;;4877680;29;20105;-80
2022/06/16 23:02:06;;;;;;;23.23;15.23;;;;;;;;;;4868157;29;20045;-80
2022/06/16 23:04:33;;;;;;;18.65;14.80;;;;;;;;;;4880890;29;20049;-80
2022/06/16 23:06:59;;;;;;;19.30;14.40;;;;;;;;;;4880338;29;20072;-79
2022/06/16 23:09:31;;;;;;;19.17;14.63;;;;;;;;;;4879852;29;20040;-79
2022/06/16 23:11:57;;;;;;;22.58;15.10;;;;;;;;;;4872589;29;20104;-77
2022/06/16 23:14:24;;;;;;;24.80;16.10;;;;;;;;;;4868569;29;20044;-81
2022/06/16 23:16:51;;;;;;;18.58;15.75;;;;;;;;;;4871341;29;20490;-78
2022/06/16 23:19:18;;;;;;;23.58;15.15;;;;;;;;;;4872816;29;20063;-81
2022/06/16 23:21:45;;;;;;;25.42;14.52;;;;;;;;;;4884804;29;21888;-80
2022/06/16 23:24:14;;;;;;;18.20;15.90;;;;;;;;;;4882312;29;20033;-80
2022/06/16 23:26:40;;;;;;;22.10;16.80;;;;;;;;;;4877981;29;20052;-77
2022/06/16 23:29:06;;;;;;;18.58;15.70;;;;;;;;;;4878104;29;20100;-81
2022/06/16 23:31:34;;;;;;;19.40;16.05;;;;;;;;;;4847228;29;20094;-80
2022/06/16 23:34:01;;;;;;;21.25;15.60;;;;;;;;;;4885126;29;20052;-79
2022/06/16 23:36:27;;;;;;;17.38;15.65;;;;;;;;;;4881515;29;20087;-74
2022/06/16 23:38:53;;;;;;;16.00;13.57;;;;;;;;;;4877832;29;20300;-76
2022/06/16 23:41:20;;;;;;;19.40;15.00;;;;;;;;;;4879046;29;20052;-75
2022/06/16 23:43:46;;;;;;;14.27;12.88;;;;;;;;;;4873419;29;20458;-76
2022/06/16 23:46:17;;;;;;;20.23;13.95;;;;;;;;;;4879172;29;20067;-77
2022/06/16 23:48:43;;;;;;;20.75;15.73;;;;;;;;;;4874429;29;20044;-76
2022/06/16 23:51:18;;;;;;;15.55;13.75;;;;;;;;;;4877198;29;20048;-76
2022/06/16 23:53:45;;;;;;;17.23;13.93;;;;;;;;;;4877480;29;20053;-77
2022/06/16 23:56:12;;;;;;;14.35;12.93;;;;;;;;;;4871221;29;20056;-78
2022/06/16 23:58:39;;;;;;;16.52;13.25;;;;;;;;;;4877103;29;20554;-77
